Time,TemperatureF,DewpointF,PressureIn,WindDirection,WindDirectionDegrees,WindSpeedMPH,WindSpeedGustMPH,Humidity,HourlyPrecipIn,Conditions,Clouds,dailyrainin,SolarRadiationWatts/m^2,SoftwareType,DateUTC
2013-05-08 00:12:00,34.0,30.0,-100.00,SE,139,3.0,11.0,85,0.00,,,0.08,0.000000,,2013-05-08 06:12:00,
2013-05-08 00:21:00,34.0,30.0,-100.00,SE,139,3.0,11.0,85,0.00,,,0.08,0.000000,,2013-05-08 06:21:00,
2013-05-08 00:32:00,34.0,30.0,-100.00,SE,139,3.0,11.0,85,0.00,,,0.08,0.000000,,2013-05-08 06:32:00,
2013-05-08 00:41:00,34.0,30.0,-100.00,SE,139,3.0,11.0,85,0.00,,,0.08,0.000000,,2013-05-08 06:41:00,
2013-05-08 01:11:00,34.0,32.0,-100.00,West,269,1.0,4.0,92,0.00,,,0.08,0.000000,,2013-05-08 07:11:00,
2013-05-08 01:21:00,34.0,32.0,-100.00,West,269,1.0,4.0,92,0.00,,,0.08,0.000000,,2013-05-08 07:21:00,
2013-05-08 01:31:00,34.0,32.0,-100.00,West,269,1.0,4.0,92,0.00,,,0.08,0.000000,,2013-05-08 07:31:00,
2013-05-08 01:42:00,34.0,32.0,-100.00,West,269,1.0,4.0,92,0.00,,,0.08,0.000000,,2013-05-08 07:42:00,
2013-05-08 02:11:00,33.0,32.0,-100.00,NE,50,0.0,6.0,97,0.00,,,0.08,0.000000,,2013-05-08 08:11:00,
2013-05-08 02:21:00,33.0,32.0,-100.00,NE,50,0.0,6.0,97,0.00,,,0.08,0.000000,,2013-05-08 08:21:00,
2013-05-08 02:31:00,33.0,32.0,-100.00,NE,50,0.0,6.0,97,0.00,,,0.08,0.000000,,2013-05-08 08:31:00,
2013-05-08 02:42:00,33.0,32.0,-100.00,NE,50,0.0,6.0,97,0.00,,,0.08,0.000000,,2013-05-08 08:42:00,
2013-05-08 03:11:00,33.0,32.0,-100.00,WSW,254,1.0,5.0,97,0.00,,,0.08,0.000000,,2013-05-08 09:11:00,
2013-05-08 03:21:00,33.0,32.0,-100.00,WSW,254,1.0,5.0,97,0.00,,,0.08,0.000000,,2013-05-08 09:21:00,
2013-05-08 03:32:00,33.0,32.0,-100.00,WSW,254,1.0,5.0,97,0.00,,,0.08,0.000000,,2013-05-08 09:32:00,
2013-05-08 03:42:00,33.0,32.0,-100.00,WSW,254,1.0,5.0,97,0.00,,,0.08,0.000000,,2013-05-08 09:42:00,
2013-05-08 04:12:00,32.0,31.0,-100.00,NE,48,0.0,4.0,96,0.00,,,0.08,0.000000,,2013-05-08 10:12:00,
2013-05-08 04:22:00,32.0,31.0,-100.00,NE,48,0.0,4.0,96,0.00,,,0.08,0.000000,,2013-05-08 10:22:00,
2013-05-08 04:33:00,32.0,31.0,-100.00,NE,48,0.0,4.0,96,0.00,,,0.08,0.000000,,2013-05-08 10:33:00,
2013-05-08 04:42:00,32.0,31.0,-100.00,NE,48,0.0,4.0,96,0.00,,,0.08,0.000000,,2013-05-08 10:42:00,
2013-05-08 05:11:00,32.0,31.0,-100.00,NE,53,6.0,9.0,97,0.00,,,0.08,0.000000,,2013-05-08 11:11:00,
2013-05-08 05:22:00,32.0,31.0,-100.00,NE,53,6.0,9.0,97,0.00,,,0.08,0.000000,,2013-05-08 11:22:00,
2013-05-08 05:32:00,32.0,31.0,-100.00,NE,53,6.0,9.0,97,0.00,,,0.08,0.000000,,2013-05-08 11:32:00,
2013-05-08 05:41:00,32.0,31.0,-100.00,NE,53,6.0,9.0,97,0.00,,,0.08,0.000000,,2013-05-08 11:41:00,
2013-05-08 06:11:00,32.0,31.0,-100.00,East,83,3.0,10.0,96,0.00,,,0.08,0.000000,,2013-05-08 12:11:00,
2013-05-08 06:21:00,32.0,31.0,-100.00,East,83,3.0,10.0,96,0.00,,,0.08,0.000000,,2013-05-08 12:21:00,
2013-05-08 06:31:00,32.0,31.0,-100.00,East,83,3.0,10.0,96,0.00,,,0.08,0.000000,,2013-05-08 12:31:00,
2013-05-08 06:41:00,32.0,31.0,-100.00,East,83,3.0,10.0,96,0.00,,,0.08,0.000000,,2013-05-08 12:41:00,
2013-05-08 07:11:00,32.0,31.0,-100.00,NE,56,7.0,8.0,97,0.00,,,0.08,6.000000,,2013-05-08 13:11:00,
2013-05-08 07:21:00,32.0,31.0,-100.00,NE,56,7.0,8.0,97,0.00,,,0.08,6.000000,,2013-05-08 13:21:00,
2013-05-08 07:32:00,32.0,31.0,-100.00,NE,56,7.0,8.0,97,0.00,,,0.08,6.000000,,2013-05-08 13:32:00,
2013-05-08 07:42:00,32.0,31.0,-100.00,NE,56,7.0,8.0,97,0.00,,,0.08,6.000000,,2013-05-08 13:42:00,
2013-05-08 08:11:00,32.0,31.0,-100.00,SSE,159,3.0,10.0,97,0.00,,,0.06,75.000000,,2013-05-08 14:11:00,
2013-05-08 08:21:00,32.0,31.0,-100.00,SSE,159,3.0,10.0,97,0.00,,,0.06,75.000000,,2013-05-08 14:21:00,
2013-05-08 08:31:00,32.0,31.0,-100.00,SSE,159,3.0,10.0,97,0.00,,,0.06,75.000000,,2013-05-08 14:31:00,
2013-05-08 08:42:00,32.0,31.0,-100.00,SSE,159,3.0,10.0,97,0.00,,,0.06,75.000000,,2013-05-08 14:42:00,
2013-05-08 09:11:00,32.0,31.0,-100.00,South,184,22.0,29.0,96,0.01,,,0.02,106.000000,,2013-05-08 15:11:00,
2013-05-08 09:21:00,32.0,31.0,-100.00,South,184,22.0,29.0,96,0.01,,,0.02,106.000000,,2013-05-08 15:21:00,
2013-05-08 09:33:00,32.0,31.0,-100.00,South,184,22.0,29.0,96,0.01,,,0.02,106.000000,,2013-05-08 15:33:00,
2013-05-08 09:42:00,32.0,31.0,-100.00,South,184,22.0,29.0,96,0.01,,,0.02,106.000000,,2013-05-08 15:42:00,
2013-05-08 10:12:00,36.0,32.0,-100.00,SSW,201,10.0,26.0,86,0.00,,,-99.99,376.000000,,2013-05-08 16:12:00,
2013-05-08 10:23:00,36.0,32.0,-100.00,SSW,201,10.0,26.0,86,0.00,,,-99.99,376.000000,,2013-05-08 16:23:00,
2013-05-08 10:33:00,36.0,32.0,-100.00,SSW,201,10.0,26.0,86,0.00,,,-99.99,376.000000,,2013-05-08 16:33:00,
2013-05-08 10:42:00,36.0,32.0,-100.00,SSW,201,10.0,26.0,86,0.00,,,-99.99,376.000000,,2013-05-08 16:42:00,
2013-05-08 11:12:00,44.0,31.0,-100.00,NW,312,1.0,11.0,59,0.00,,,-99.99,561.000000,,2013-05-08 17:12:00,
2013-05-08 11:22:00,44.0,31.0,-100.00,NW,312,1.0,11.0,59,0.00,,,-99.99,561.000000,,2013-05-08 17:22:00,
2013-05-08 12:11:00,42.0,33.0,-100.00,NNW,345,5.0,10.0,70,-99.99,,,-99.99,382.000000,,2013-05-08 18:11:00,
2013-05-08 12:21:00,42.0,33.0,-100.00,NNW,345,5.0,10.0,70,-99.99,,,-99.99,382.000000,,2013-05-08 18:21:00,
2013-05-08 12:31:00,42.0,33.0,-100.00,NNW,345,5.0,10.0,70,-99.99,,,-99.99,382.000000,,2013-05-08 18:31:00,
2013-05-08 12:42:00,42.0,33.0,-100.00,NNW,345,5.0,10.0,70,-99.99,,,-99.99,382.000000,,2013-05-08 18:42:00,
2013-05-08 13:11:00,41.0,30.0,-100.00,East,82,2.0,12.0,65,0.00,,,0.02,510.000000,,2013-05-08 19:11:00,
2013-05-08 13:21:00,41.0,30.0,-100.00,East,82,2.0,12.0,65,0.00,,,0.02,510.000000,,2013-05-08 19:21:00,
2013-05-08 13:32:00,41.0,30.0,-100.00,East,82,2.0,12.0,65,0.00,,,0.02,510.000000,,2013-05-08 19:32:00,
2013-05-08 13:41:00,41.0,30.0,-100.00,East,82,2.0,12.0,65,0.00,,,0.02,510.000000,,2013-05-08 19:41:00,
2013-05-08 14:11:00,39.0,32.0,-100.00,NNW,329,5.0,13.0,76,0.00,,,0.02,525.000000,,2013-05-08 20:11:00,
2013-05-08 14:22:00,39.0,32.0,-100.00,NNW,329,5.0,13.0,76,0.00,,,0.02,525.000000,,2013-05-08 20:22:00,
2013-05-08 14:32:00,39.0,32.0,-100.00,NNW,329,5.0,13.0,76,0.00,,,0.02,525.000000,,2013-05-08 20:32:00,
2013-05-08 14:41:00,39.0,32.0,-100.00,NNW,329,5.0,13.0,76,0.00,,,0.02,525.000000,,2013-05-08 20:41:00,
2013-05-08 15:11:00,37.0,28.0,-100.00,West,274,6.0,15.0,70,0.00,,,0.02,352.000000,,2013-05-08 21:11:00,
2013-05-08 15:43:00,37.0,28.0,-100.00,West,274,6.0,15.0,70,0.00,,,0.02,352.000000,,2013-05-08 21:43:00,
2013-05-08 16:12:00,36.0,34.0,-100.00,South,175,3.0,12.0,94,0.00,,,0.02,243.000000,,2013-05-08 22:12:00,
2013-05-08 16:22:00,36.0,34.0,-100.00,South,175,3.0,12.0,94,0.00,,,0.02,243.000000,,2013-05-08 22:22:00,
2013-05-08 16:33:00,36.0,34.0,-100.00,South,175,3.0,12.0,94,0.00,,,0.02,243.000000,,2013-05-08 22:33:00,
2013-05-08 16:42:00,36.0,34.0,-100.00,South,175,3.0,12.0,94,0.00,,,0.02,243.000000,,2013-05-08 22:42:00,
2013-05-08 17:11:00,37.0,33.0,-100.00,WNW,287,4.0,13.0,85,0.01,,,0.02,369.000000,,2013-05-08 23:11:00,
2013-05-08 17:22:00,37.0,33.0,-100.00,WNW,287,4.0,13.0,85,0.01,,,0.02,369.000000,,2013-05-08 23:22:00,
2013-05-08 17:32:00,37.0,33.0,-100.00,WNW,287,4.0,13.0,85,0.01,,,0.02,369.000000,,2013-05-08 23:32:00,
2013-05-08 17:42:00,37.0,33.0,-100.00,WNW,287,4.0,13.0,85,0.01,,,0.02,369.000000,,2013-05-08 23:42:00,
2013-05-08 18:11:00,39.0,32.0,-100.00,SW,234,6.0,13.0,76,0.00,,,0.02,373.000000,,2013-05-09 00:11:00,
2013-05-08 18:21:00,39.0,32.0,-100.00,SW,234,6.0,13.0,76,0.00,,,0.02,373.000000,,2013-05-09 00:21:00,
2013-05-08 18:32:00,39.0,32.0,-100.00,SW,234,6.0,13.0,76,0.00,,,0.02,373.000000,,2013-05-09 00:32:00,
2013-05-08 18:42:00,39.0,32.0,-100.00,SW,234,6.0,13.0,76,0.00,,,0.02,373.000000,,2013-05-09 00:42:00,
2013-05-08 19:11:00,36.0,30.0,-100.00,WNW,296,7.0,16.0,78,0.00,,,0.02,160.000000,,2013-05-09 01:11:00,
2013-05-08 19:22:00,36.0,30.0,-100.00,WNW,296,7.0,16.0,78,0.00,,,0.02,160.000000,,2013-05-09 01:22:00,
2013-05-08 19:32:00,36.0,30.0,-100.00,WNW,296,7.0,16.0,78,0.00,,,0.02,160.000000,,2013-05-09 01:32:00,
2013-05-08 19:42:00,36.0,30.0,-100.00,WNW,296,7.0,16.0,78,0.00,,,0.02,160.000000,,2013-05-09 01:42:00,
2013-05-08 20:11:00,34.0,28.0,-100.00,WNW,283,5.0,13.0,80,0.00,,,0.02,39.000000,,2013-05-09 02:11:00,
2013-05-08 20:21:00,34.0,28.0,-100.00,WNW,283,5.0,13.0,80,0.00,,,0.02,39.000000,,2013-05-09 02:21:00,
2013-05-08 20:32:00,34.0,28.0,-100.00,WNW,283,5.0,13.0,80,0.00,,,0.02,39.000000,,2013-05-09 02:32:00,
2013-05-08 20:41:00,34.0,28.0,-100.00,WNW,283,5.0,13.0,80,0.00,,,0.02,39.000000,,2013-05-09 02:41:00,
2013-05-08 21:11:00,35.0,30.0,-100.00,WSW,251,6.0,10.0,82,0.00,,,0.02,1.000000,,2013-05-09 03:11:00,
2013-05-08 21:21:00,35.0,30.0,-100.00,WSW,251,6.0,10.0,82,0.00,,,0.02,1.000000,,2013-05-09 03:21:00,
2013-05-08 21:33:00,35.0,30.0,-100.00,WSW,251,6.0,10.0,82,0.00,,,0.02,1.000000,,2013-05-09 03:33:00,
2013-05-08 21:43:00,35.0,30.0,-100.00,WSW,251,6.0,10.0,82,0.00,,,0.02,1.000000,,2013-05-09 03:43:00,
2013-05-08 22:12:00,33.0,30.0,-100.00,SW,222,4.0,8.0,89,0.00,,,0.02,0.000000,,2013-05-09 04:12:00,
2013-05-08 22:23:00,33.0,30.0,-100.00,SW,222,4.0,8.0,89,0.00,,,0.02,0.000000,,2013-05-09 04:23:00,
2013-05-08 22:32:00,33.0,30.0,-100.00,SW,222,4.0,8.0,89,0.00,,,0.02,0.000000,,2013-05-09 04:32:00,
2013-05-08 22:42:00,33.0,30.0,-100.00,SW,222,4.0,8.0,89,0.00,,,0.02,0.000000,,2013-05-09 04:42:00,
2013-05-08 23:12:00,32.0,31.0,-100.00,SW,218,4.0,7.0,97,0.00,,,0.02,0.000000,,2013-05-09 05:12:00,
2013-05-08 23:22:00,32.0,31.0,-100.00,SW,218,4.0,7.0,97,0.00,,,0.02,0.000000,,2013-05-09 05:22:00,
2013-05-08 23:32:00,32.0,31.0,-100.00,SW,218,4.0,7.0,97,0.00,,,0.02,0.000000,,2013-05-09 05:32:00,
2013-05-08 23:42:00,32.0,31.0,-100.00,SW,218,4.0,7.0,97,0.00,,,0.02,0.000000,,2013-05-09 05:42:00,